Station: Mount Gambier

  Atmospheric Gas Attenuation - ITU Rec 676-11   --------------- db/100km ---------------
Date Time Temp RH % AH g/m3 Dew Point Wind Direction Speed kph Gust kph Barometer mB Rainfall Since 9am 24GHz 47GHz 76GHz 122GHz 134GHz 241GHz
21 17:40 13.4 71 8.25 8.3 32 37 1001 1.2 18.9 25.0 38.1 100.0 93.3 320.8
21 17:30 13.5 69 8.07 7.9 30 46 1001 1.2 18.5 24.7 37.3 98.0 90.9 312.2
21 17:20 13.5 69 8.07 7.9 28 35 1000.9 1.2 18.5 24.7 37.3 97.9 90.9 312.2
21 17:10 13.6 66 7.77 7.4 33 37 1000.9 1.2 17.8 24.2 36.1 94.7 86.9 298.4
21 17:00 13.8 66 7.86 7.6 28 39 1000.8 1.2 18.0 24.3 36.3 95.4 87.8 301.6
21 16:50 13.8 65 7.74 7.3 41 52 1000.8 1.2 17.8 24.1 35.9 94.2 86.3 296.3
21 16:40 13.8 64 7.63 7.1 33 37 1000.9 1.2 17.5 23.9 35.5 93.0 84.9 291.4
21 16:30 13.9 66 7.91 7.7 30 43 1000.8 1.2 18.1 24.3 36.5 95.8 88.3 303.4
21 16:20 13.9 69 8.27 8.3 32 39 1000.8 1.2 18.9 24.9 37.9 99.5 93.0 319.6
21 16:10 13.4 75 8.72 9.1 26 32 1000.8 1.2 19.9 25.7 39.9 105.0 99.5 342.3
21 16:00 13.5 72 8.42 8.6 32 46 1000.7 1.2 19.2 25.2 38.7 101.6 95.4 328.1
21 15:50 13.2 74 8.5 8.7 30 37 1000.7 1.2 19.4 25.4 39.1 102.9 96.8 333.0
21 15:40 13 78 8.85 9.3 30 37 1000.6 1.2 20.2 26.1 40.6 106.9 101.7 350.1
21 15:30 11.9 88 9.32 10 30 43 1000.8 1.2 21.2 27.2 43.2 113.6 109.6 377.6
21 15:20 11.1 88 8.87 9.2 30 33 1000.8 1.2 20.3 26.7 41.7 109.8 104.5 359.8
21 15:10 12.5 79 8.69 9 37 52 1000.6 0.6 19.9 25.9 40.2 105.8 100.2 344.8
21 15:00 13.4 71 8.25 8.3 35 50 1000.1 0.4 18.9 25.0 38.0 99.9 93.2 320.6
21 14:50 15.1 59 7.61 7.2 37 48 1000 0.4 17.4 23.5 34.8 91.2 83.2 285.6
21 14:40 14.9 61 7.77 7.5 26 35 1000 0.4 17.8 23.8 35.5 93.1 85.4 293.3
21 14:30 14.9 65 8.28 8.4 43 54 1000 0.4 18.9 24.6 37.4 98.3 91.8 315.8
21 14:20 14.5 63 7.84 7.5 28 39 1000.2 0.4 17.9 24.0 35.9 94.3 86.7 297.9
21 14:10 14.2 72 8.79 9.2 32 35 1000.3 0.4 20.0 25.6 39.8 104.6 99.3 341.9
21 14:00 12.8 76 8.51 8.7 35 50 1000.7 0.4 19.5 25.6 39.4 103.5 97.4 335.2
21 13:50 12.9 72 8.12 8 35 41 1000.7 0 18.6 24.9 37.8 99.2 92.2 316.8
21 13:40 13.2 68 7.81 7.4 39 50 1000.8 0 17.9 24.3 36.4 95.6 87.9 301.6
21 13:30 14.9 58 7.39 6.7 37 54 1000.4 0 17.0 23.2 34.1 89.3 80.7 276.9
21 13:20 14.9 56 7.14 6.2 39 46 1000.6 0 16.4 22.9 33.1 86.8 77.7 266.2
21 13:10 16.9 47 6.76 5.5 46 59 1000.4 0 15.6 21.8 31.0 81.0 71.2 243.8
21 13:00 16 50 6.81 5.6 35 56 1000.5 0 15.7 22.1 31.5 82.4 72.6 248.7
21 12:50 15.9 48 6.5 4.9 30 54 1000.7 0 15.0 21.7 30.4 79.6 69.1 236.2
21 12:40 16.7 44 6.25 4.4 35 44 1000.6 0 14.5 21.1 29.2 76.5 65.5 223.7
21 12:30 17.6 44 6.6 5.2 37 65 1000.8 0 15.2 21.4 30.1 78.9 68.8 235.3
21 12:20 17.5 52 7.75 7.5 35 54 1000.9 0 17.6 23.1 34.3 90.0 82.5 283.3
21 12:10 16.8 49 7.01 6 33 39 1001 0 16.1 22.2 31.9 83.6 74.3 254.6
21 12:00 17 53 7.67 7.4 33 44 1001.2 0 17.5 23.1 34.2 89.8 82.0 281.7
21 11:50 16.4 52 7.26 6.5 35 39 1001.2 0 16.6 22.7 33.0 86.4 77.7 266.4
21 11:40 16.7 53 7.53 7.1 37 44 1001.4 0 17.2 23.0 33.9 88.8 80.7 276.9
21 11:30 16.1 52 7.13 6.3 35 48 1001.5 0 16.4 22.6 32.6 85.5 76.4 262.0
21 11:20 16.6 57 8.05 8.1 41 50 1001.5 0 18.3 23.8 35.8 94.1 87.1 299.5
21 11:10 15.9 56 7.58 7.1 33 41 1001.6 0 17.3 23.3 34.4 90.2 82.1 281.8
21 11:00 15.9 57 7.72 7.4 33 52 1001.8 0 17.6 23.5 34.9 91.6 83.8 287.9
21 10:50 15.7 57 7.63 7.2 37 46 1001.7 0 17.4 23.4 34.7 90.9 82.9 284.7
21 10:40 16 62 8.45 8.7 28 35 1001.9 0 19.2 24.6 37.6 98.9 92.9 319.5
21 10:30 15.3 59 7.7 7.3 32 52 1001.9 0 17.6 23.7 35.1 92.1 84.2 289.2
21 10:20 15.2 64 8.31 8.4 32 37 1001.9 0 18.9 24.6 37.5 98.4 92.0 316.5
21 10:10 15.4 66 8.67 9.1 35 43 1002 0 19.7 25.1 38.8 101.9 96.4 331.8
21 10:00 14.3 65 7.99 7.8 30 48 1002.2 0 18.3 24.4 36.7 96.3 89.0 305.8
21 09:50 14.2 65 7.94 7.7 33 43 1002.2 0 18.2 24.3 36.5 95.9 88.5 304.0
21 09:40 14.4 67 8.28 8.4 24 32 1002.4 0 18.9 24.8 37.8 99.2 92.6 318.5
21 09:30 14.1 66 8.01 7.9 30 44 1002.5 0 18.3 24.5 36.9 96.7 89.5 307.6
21 09:20 14.5 72 8.96 9.5 35 39 1002.6 0 20.3 25.9 40.4 106.2 101.4 349.1
21 09:10 14 70 8.44 8.6 32 37 1002.7 0 19.2 25.2 38.6 101.4 95.2 327.4
21 09:00 13.6 70 8.24 8.2 30 41 1002.9 0 18.8 25.0 38.0 99.8 93.1 320.0
21 08:50 13.6 70 8.24 8.2 28 32 1003.1 3 18.8 25.0 38.0 99.8 93.1 320.1
21 08:40 13.4 72 8.37 8.5 32 41 1003.1 3 19.1 25.3 38.6 101.5 95.1 326.8
21 08:30 13.1 74 8.44 8.6 22 37 1003.1 3 19.3 25.5 39.1 102.6 96.3 331.3
21 08:20 12.6 74 8.19 8.1 20 26 1003.1 3 18.8 25.2 38.3 100.6 93.7 321.9
21 08:10 12.6 77 8.52 8.7 22 30 1003.2 3 19.5 25.7 39.6 104.1 98.0 337.2
21 08:00 12.3 79 8.58 8.8 24 32 1003.2 3 19.6 25.9 40.0 105.2 99.2 341.3
21 07:50 11.7 78 8.16 8 30 33 1003.4 3 18.8 25.4 38.6 101.4 94.4 324.3
21 07:40 11.7 78 8.16 8 22 32 1003.5 3 18.8 25.4 38.6 101.5 94.4 324.3
21 07:30 11.3 80 8.16 8 22 32 1003.5 3 18.8 25.5 38.8 102.0 94.9 326.0
21 07:20 10.9 82 8.16 8 24 28 1003.6 3 18.8 25.7 39.0 102.5 95.4 327.7
21 07:10 10.5 83 8.05 7.7 19 22 1003.6 3 18.6 25.6 38.8 101.8 94.4 324.2
21 07:00 10.1 85 8.04 7.7 17 26 1003.6 3 18.6 25.7 38.9 102.2 94.8 325.4
21 06:50 10.1 86 8.13 7.9 17 19 1003.6 3 18.8 25.8 39.3 103.2 96.0 329.6
21 06:40 9.5 88 8.01 7.6 17 19 1003.4 3 18.5 25.8 39.1 102.7 95.1 326.4
21 06:30 9.2 89 7.95 7.5 17 24 1003.3 3 18.4 25.8 39.0 102.4 94.6 324.8
21 06:20 9.1 89 7.9 7.4 19 19 1003.3 3 18.3 25.7 38.8 102.0 94.1 322.8
21 06:10 9.2 89 7.95 7.5 15 19 1003.1 3 18.4 25.8 39.0 102.4 94.6 324.7
21 06:00 9.2 88 7.86 7.3 17 24 1003.1 3 18.2 25.6 38.6 101.4 93.4 320.4
21 05:50 9.5 87 7.92 7.4 19 22 1003 3 18.3 25.6 38.7 101.6 93.8 322.0
21 05:40 9.4 88 7.96 7.5 17 20 1003 3 18.4 25.7 38.9 102.2 94.5 324.3
21 05:30 9.4 88 7.96 7.5 17 24 1003.1 3 18.4 25.7 38.9 102.2 94.5 324.3
21 05:20 9.4 88 7.96 7.5 19 22 1003.1 3 18.4 25.7 38.9 102.2 94.5 324.3
21 05:10 9.3 86 7.73 7.1 15 17 1003.1 3 17.9 25.4 38.0 99.8 91.5 313.8
21 04:50 9.8 85 7.89 7.4 20 22 1002.9 3 18.3 25.5 38.4 100.9 93.0 319.3
21 04:40 10 85 7.99 7.6 20 26 1002.9 3 18.5 25.6 38.7 101.8 94.1 323.2
21 04:30 10.1 85 8.04 7.7 19 26 1002.8 3 18.6 25.7 38.9 102.2 94.7 325.1
21 04:20 9.9 87 8.13 7.8 15 19 1002.8 3 18.8 25.9 39.4 103.4 96.2 330.3
21 04:10 9.6 90 8.25 8 15 19 1002.6 3 19.0 26.1 40.0 105.1 98.2 337.2
21 04:00 9.7 91 8.39 8.3 13 20 1002.7 3 19.3 26.4 40.5 106.6 100.0 343.6
21 03:50 9.6 90 8.25 8 13 15 1002.7 3 19.0 26.1 40.0 105.1 98.2 337.3
21 03:40 10.2 89 8.47 8.5 11 15 1002.6 3 19.5 26.3 40.6 106.8 100.4 345.2
21 03:30 10.4 87 8.39 8.3 17 24 1002.7 3 19.3 26.1 40.2 105.6 99.1 340.5
21 03:20 10.7 88 8.65 8.8 15 17 1002.8 3 19.9 26.5 41.1 108.1 102.2 351.6
21 03:10 11 86 8.61 8.8 19 22 1002.8 3 19.8 26.3 40.8 107.2 101.3 348.3
21 03:00 11.4 84 8.62 8.8 17 24 1002.7 3 19.8 26.2 40.6 106.8 100.9 347.0
21 02:50 11.7 83 8.68 8.9 15 17 1002.6 3 19.9 26.2 40.7 107.0 101.3 348.5
21 02:40 11.6 84 8.73 9 17 20 1002.7 3 20.0 26.4 41.0 107.7 102.1 351.3
21 02:30 11.6 85 8.84 9.2 19 26 1002.6 3 20.2 26.5 41.4 108.9 103.6 356.5
21 02:20 11.7 86 9 9.4 20 26 1002.6 3 20.6 26.8 42.0 110.6 105.7 363.7
21 02:10 11.6 86 8.94 9.3 13 15 1002.6 3 20.4 26.7 41.8 110.0 105.0 361.3
21 02:00 11.7 86 9 9.4 17 32 1002.9 3 20.6 26.8 42.0 110.6 105.7 363.8
21 01:50 11.9 86 9.11 9.6 13 15 1003 3 20.8 26.9 42.4 111.5 106.9 368.2
21 01:40 12 85 9.06 9.6 13 15 1003.3 3 20.7 26.8 42.2 110.9 106.1 365.4
21 01:30 11.8 86 9.05 9.5 17 26 1003.3 3 20.7 26.9 42.2 111.0 106.3 365.9
21 01:20 11.9 86 9.11 9.6 17 20 1003.4 3 20.8 26.9 42.4 111.6 107.0 368.3
21 01:10 11.9 86 9.11 9.6 22 26 1003.4 3 20.8 26.9 42.4 111.6 107.0 368.3
21 01:00 11.9 86 9.11 9.6 19 28 1003.4 3 20.8 26.9 42.4 111.6 107.0 368.3

Last Refresh: 21-Sep-2020 17:53:54

Most of the information presented on this site is sourced from the Bureau of Meteorology.  Copyright in all material sourced from the Bureau of Meteorology resides with the Commonwealth of Australia.